Corydon, IN

5:37 PM EST on February 07, 2016 (GMT -0500)
k9set Harrison county skywarn | | Change Station
CLOSE
Current Station
Personal Weather Station
Location: corydon, IN
Elevation: 649 ft
Nearby Weather Stations
Active Advisory: Special Statement

Elev 649 ft 38.21 °N, 86.11 °W | Updated 5 seconds ago

Partly Cloudy
Partly Cloudy
53.6 °F
Feels Like 53.6 °F
N
6.0
Wind Variable Wind from WSW
Gusts 19.0 mph

Today
High -- | Low -- °F
--% Chance of Precip.
Yesterday
High -- | Low -- °F
Precip. -- in
Pressure 29.90 in
Visibility 10.0 miles
Clouds Few 20000 ft
Scattered Clouds 25000 ft
Dew Point 30 °F
Humidity 41%
Rainfall 0.00 in
Snow Depth Not available.
7:44 AM 6:13 PM
Waning Crescent, 1% visible
METAR KSDF 072156Z 23013KT 10SM FEW200 SCT250 13/M07 A2990 RMK AO2 SLP125 T01281072
Pressure 29.90 in
Visibility 10.0 miles
Clouds Few 20000 ft
Scattered Clouds 25000 ft
Dew Point 30 °F
Humidity 41%
Rainfall 0.00 in
Snow Depth Not available.
7:44 AM 6:13 PM
Waning Crescent, 1% visible
METAR KSDF 072156Z 23013KT 10SM FEW200 SCT250 13/M07 A2990 RMK AO2 SLP125 T01281072

10-Day Weather Forecast

Almanac

Astronomy

Feb. 07, 2016 Rise Set
Actual Time
Civil Twilight
Nautical Twilight
Astronomical Twilight
Moon
Length of Visible Light
Length of Day
Tomorrow will be .
, % of the Moon is Illuminated

Today's Extremes

State Highs State Lows

Community

WunderPhotos

Upload Photos

1,891,324 photos uploaded!

WunderBlog® & News

Nearby

Air Quality

  Air Quality AQ Index Pollutant
Not available.

Snow Depth

Station Depth Elevation

Earthquake Activity

City Distance Mag. Time & Date
Minimum magnitude displayed is 2.5.

Coastal Water Temperatures

Place Temperature

Stations

Nearby Weather Stations

Station Location Temp. Windchill Dew Point Humidity Wind Precip. Elev Updated Type
                   

Watches & Warnings

Special Statement
Issued: 3:05 PM CST Feb. 7, 2016 – National Weather Service

... Snow showers Monday afternoon through Tuesday evening...

After a morning mix of light rain and snow showers... scattered to
numerous moderate snow showers are expected at times from Monday
afternoon through at least Tuesday evening. As temperatures fall
below freezing... each passing shower will produce a dusting to a
light coating of snow capable of quickly covering surfaces. Travel
may be minorly impacted at times... especially untreated and side
streets. Overall 1 to 2 inches of snow is possible through Tuesday
evening. Use caution if planning to travel during this time.


Bjs